Time;durP1;ratioP1;P1;durP2;ratioP2;P2;SDS_P1;SDS_P2;PMS_P1;PMS_P2;Temp;Humidity;BMP_temperature;BMP_pressure;BME280_temperature;BME280_humidity;BME280_pressure;Samples;Min_cycle;Max_cycle;Signal;HPM_P1;HPM_P2
2022/06/14 00:01:38;;;;;;;4.13;2.30;;;;;;;;;;4973229;28;20287;-57
2022/06/14 00:04:04;;;;;;;3.80;2.77;;;;;;;;;;4979748;28;20193;-56
2022/06/14 00:06:31;;;;;;;4.60;2.83;;;;;;;;;;4983237;28;20238;-57
2022/06/14 00:08:56;;;;;;;3.37;2.50;;;;;;;;;;4987415;28;20915;-57
2022/06/14 00:11:26;;;;;;;4.10;2.40;;;;;;;;;;4983805;28;20266;-57
2022/06/14 00:13:53;;;;;;;4.47;2.60;;;;;;;;;;4987587;28;20190;-56
2022/06/14 00:16:19;;;;;;;4.33;2.40;;;;;;;;;;4981879;28;20230;-57
2022/06/14 00:18:45;;;;;;;2.93;2.10;;;;;;;;;;4986856;28;20182;-57
2022/06/14 00:21:10;;;;;;;5.90;2.20;;;;;;;;;;4987908;28;20563;-57
2022/06/14 00:23:37;;;;;;;3.83;2.60;;;;;;;;;;4987205;28;20193;-57
2022/06/14 00:26:03;;;;;;;3.60;2.50;;;;;;;;;;4991747;28;20244;-57
2022/06/14 00:28:29;;;;;;;3.50;1.90;;;;;;;;;;4985917;28;20241;-56
2022/06/14 00:30:56;;;;;;;5.37;2.30;;;;;;;;;;4988954;28;20651;-56
2022/06/14 00:33:22;;;;;;;4.37;2.13;;;;;;;;;;4985083;28;20198;-56
2022/06/14 00:35:48;;;;;;;5.57;2.73;;;;;;;;;;4989677;28;20712;-57
2022/06/14 00:38:15;;;;;;;4.60;1.90;;;;;;;;;;4987580;28;20201;-57
2022/06/14 00:40:41;;;;;;;4.07;1.83;;;;;;;;;;4990172;28;20294;-56
2022/06/14 00:43:14;;;;;;;3.10;1.80;;;;;;;;;;4989303;28;20190;-57
2022/06/14 00:45:40;;;;;;;3.20;2.17;;;;;;;;;;4980305;28;20216;-56
2022/06/14 00:48:09;;;;;;;5.17;2.13;;;;;;;;;;4981934;28;20217;-56
2022/06/14 00:50:35;;;;;;;5.03;2.73;;;;;;;;;;4983770;28;20293;-56
2022/06/14 00:53:06;;;;;;;3.30;2.57;;;;;;;;;;4989523;28;20636;-55
2022/06/14 00:55:39;;;;;;;2.77;2.33;;;;;;;;;;4982795;28;20367;-56
2022/06/14 00:58:08;;;;;;;6.43;3.00;;;;;;;;;;4981214;28;20194;-56
2022/06/14 01:00:34;;;;;;;7.57;2.60;;;;;;;;;;4987416;28;20252;-56
2022/06/14 01:03:02;;;;;;;3.77;2.60;;;;;;;;;;4987725;28;20189;-56
2022/06/14 01:06:05;;;;;;;4.00;2.80;;;;;;;;;;4983253;28;20213;-56
2022/06/14 01:08:17;;;;;;;6.50;3.00;;;;;;;;;;4987842;28;20205;-57
2022/06/14 01:10:47;;;;;;;5.70;3.27;;;;;;;;;;4985926;28;20276;-56
2022/06/14 01:13:13;;;;;;;3.10;2.80;;;;;;;;;;4987064;28;20186;-57
2022/06/14 01:15:38;;;;;;;4.53;2.90;;;;;;;;;;4988221;28;20543;-58
2022/06/14 01:18:09;;;;;;;7.53;2.77;;;;;;;;;;4988135;28;20197;-57
2022/06/14 01:20:35;;;;;;;4.50;3.20;;;;;;;;;;4984694;28;20188;-57
2022/06/14 01:23:01;;;;;;;4.70;2.97;;;;;;;;;;4986730;28;20198;-56
2022/06/14 01:25:29;;;;;;;4.57;2.70;;;;;;;;;;4976765;28;20259;-56
2022/06/14 01:27:55;;;;;;;3.47;2.40;;;;;;;;;;4977183;28;20868;-56
2022/06/14 01:30:25;;;;;;;3.43;2.60;;;;;;;;;;4974029;28;21142;-57
2022/06/14 01:32:51;;;;;;;4.53;2.80;;;;;;;;;;4985461;28;26329;-57
2022/06/14 01:35:18;;;;;;;5.60;2.70;;;;;;;;;;4986689;28;20185;-57
2022/06/14 01:37:45;;;;;;;4.23;2.80;;;;;;;;;;4985462;28;20811;-56
2022/06/14 01:40:11;;;;;;;5.77;3.07;;;;;;;;;;4989648;28;20559;-57
2022/06/14 01:42:43;;;;;;;5.00;2.70;;;;;;;;;;4984889;28;20193;-57
2022/06/14 01:45:19;;;;;;;3.57;2.70;;;;;;;;;;4988211;28;20213;-56
2022/06/14 01:47:58;;;;;;;4.67;2.70;;;;;;;;;;4988133;28;20185;-56
2022/06/14 01:53:30;;;;;;;4.50;2.87;;;;;;;;;;4981170;28;20192;-58
2022/06/14 01:56:02;;;;;;;5.77;2.93;;;;;;;;;;4987508;28;20273;-58
2022/06/14 01:58:30;;;;;;;5.30;2.60;;;;;;;;;;4979854;28;20522;-58
2022/06/14 02:01:18;;;;;;;5.03;2.70;;;;;;;;;;4974009;28;20198;-58
2022/06/14 02:06:38;;;;;;;6.07;2.93;;;;;;;;;;4980829;28;20732;-57
2022/06/14 02:09:07;;;;;;;6.33;2.93;;;;;;;;;;4991888;28;20178;-58
2022/06/14 02:11:33;;;;;;;4.80;2.50;;;;;;;;;;4989565;28;20685;-56
2022/06/14 02:14:05;;;;;;;6.90;2.50;;;;;;;;;;4990121;28;20647;-57
2022/06/14 02:16:34;;;;;;;6.77;2.40;;;;;;;;;;4989273;28;20194;-57
2022/06/14 02:19:05;;;;;;;4.63;2.50;;;;;;;;;;4985033;28;20695;-58
2022/06/14 02:21:41;;;;;;;3.00;2.23;;;;;;;;;;4990183;28;20189;-58
2022/06/14 02:24:15;;;;;;;3.10;2.47;;;;;;;;;;4988999;28;20209;-58
2022/06/14 02:26:43;;;;;;;5.00;2.50;;;;;;;;;;4995360;28;20684;-58
2022/06/14 02:29:13;;;;;;;6.10;2.90;;;;;;;;;;4991899;28;20700;-58
2022/06/14 02:31:53;;;;;;;6.17;2.83;;;;;;;;;;4991425;28;20277;-59
2022/06/14 02:34:20;;;;;;;4.97;2.47;;;;;;;;;;4986964;28;20679;-58
2022/06/14 02:36:49;;;;;;;4.60;2.60;;;;;;;;;;4989180;28;20190;-58
2022/06/14 02:39:16;;;;;;;5.73;2.80;;;;;;;;;;4993300;28;20174;-58
2022/06/14 02:41:45;;;;;;;5.07;2.90;;;;;;;;;;4989094;28;20212;-58
2022/06/14 02:44:11;;;;;;;4.57;3.10;;;;;;;;;;4994156;28;20244;-58
2022/06/14 02:46:45;;;;;;;5.63;2.33;;;;;;;;;;4987933;28;20197;-59
2022/06/14 02:49:13;;;;;;;5.97;2.17;;;;;;;;;;4989994;28;20712;-58
2022/06/14 02:52:02;;;;;;;3.37;2.30;;;;;;;;;;4993093;28;20203;-58
2022/06/14 02:54:29;;;;;;;5.50;2.70;;;;;;;;;;4964797;28;20289;-58
2022/06/14 02:57:02;;;;;;;4.50;2.70;;;;;;;;;;4983739;28;20205;-58
2022/06/14 02:59:34;;;;;;;6.07;2.83;;;;;;;;;;4981151;28;20225;-57
2022/06/14 03:02:20;;;;;;;5.07;2.90;;;;;;;;;;4971195;28;20198;-58
2022/06/14 03:04:47;;;;;;;6.57;2.93;;;;;;;;;;4979313;28;20237;-57
2022/06/14 03:07:14;;;;;;;6.03;2.70;;;;;;;;;;4980752;28;20727;-57
2022/06/14 03:09:41;;;;;;;4.83;2.97;;;;;;;;;;4979888;28;20558;-58
2022/06/14 03:12:13;;;;;;;5.43;2.77;;;;;;;;;;4983458;28;20282;-57
2022/06/14 03:14:49;;;;;;;4.23;2.70;;;;;;;;;;4987113;28;20251;-58
2022/06/14 03:17:33;;;;;;;4.30;2.67;;;;;;;;;;4984871;28;20616;-58
2022/06/14 03:20:07;;;;;;;6.27;2.80;;;;;;;;;;4989811;28;20194;-57
2022/06/14 03:22:46;;;;;;;3.73;2.30;;;;;;;;;;4990493;28;20217;-58
2022/06/14 03:25:21;;;;;;;3.87;2.30;;;;;;;;;;4986743;28;20259;-58
2022/06/14 03:27:58;;;;;;;5.43;2.83;;;;;;;;;;4986917;28;20213;-59
2022/06/14 03:30:28;;;;;;;4.90;2.37;;;;;;;;;;4995319;28;20666;-58
2022/06/14 03:33:02;;;;;;;6.00;2.60;;;;;;;;;;4979655;28;20656;-58
2022/06/14 03:35:29;;;;;;;5.43;2.70;;;;;;;;;;4976693;28;20189;-58
2022/06/14 03:37:55;;;;;;;5.87;2.73;;;;;;;;;;4983268;28;20185;-58
2022/06/14 03:40:21;;;;;;;5.23;2.63;;;;;;;;;;4987653;28;20243;-59
2022/06/14 03:42:47;;;;;;;5.00;2.50;;;;;;;;;;4993037;28;20198;-59
2022/06/14 03:45:14;;;;;;;4.10;2.40;;;;;;;;;;4985868;28;20224;-58
2022/06/14 03:47:40;;;;;;;4.27;2.90;;;;;;;;;;4988625;28;20628;-58
2022/06/14 03:50:07;;;;;;;4.23;2.70;;;;;;;;;;4990020;28;20190;-58
2022/06/14 03:52:49;;;;;;;5.37;2.50;;;;;;;;;;4987349;28;20193;-58
2022/06/14 03:55:39;;;;;;;6.73;3.10;;;;;;;;;;4986676;28;20186;-58
2022/06/14 03:58:23;;;;;;;4.77;2.67;;;;;;;;;;4984893;28;20725;-58
2022/06/14 04:00:54;;;;;;;7.50;2.40;;;;;;;;;;4989194;28;20206;-58
2022/06/14 04:03:34;;;;;;;5.50;2.70;;;;;;;;;;4989174;28;20207;-58
2022/06/14 04:06:06;;;;;;;4.60;2.43;;;;;;;;;;4983718;28;20253;-58
2022/06/14 04:08:52;;;;;;;6.27;2.70;;;;;;;;;;4982282;28;20193;-59
2022/06/14 04:11:25;;;;;;;3.63;2.23;;;;;;;;;;4967834;28;20202;-58
2022/06/14 04:14:04;;;;;;;2.70;2.37;;;;;;;;;;4989034;28;20190;-58
2022/06/14 04:16:33;;;;;;;3.43;2.20;;;;;;;;;;4984659;28;20200;-58
2022/06/14 04:19:08;;;;;;;4.77;2.50;;;;;;;;;;4983726;28;20577;-58
2022/06/14 04:21:38;;;;;;;8.27;3.43;;;;;;;;;;4979602;28;20647;-57
2022/06/14 04:24:22;;;;;;;6.27;2.57;;;;;;;;;;4979754;28;20297;-58
2022/06/14 04:26:51;;;;;;;4.50;2.57;;;;;;;;;;4962596;28;20198;-58
2022/06/14 04:29:19;;;;;;;5.37;2.47;;;;;;;;;;4972291;28;20205;-58
2022/06/14 04:31:47;;;;;;;5.17;2.53;;;;;;;;;;4988077;28;20181;-58
2022/06/14 04:34:15;;;;;;;4.20;2.93;;;;;;;;;;4975181;28;20186;-58
2022/06/14 04:36:43;;;;;;;5.00;2.80;;;;;;;;;;4989064;28;20189;-58
2022/06/14 04:39:11;;;;;;;3.27;2.77;;;;;;;;;;4982950;28;20707;-58
2022/06/14 04:41:40;;;;;;;5.37;3.50;;;;;;;;;;4982097;28;20185;-60
2022/06/14 04:44:27;;;;;;;5.27;3.10;;;;;;;;;;4981958;28;20197;-57
2022/06/14 04:46:56;;;;;;;7.23;2.97;;;;;;;;;;4982226;28;20201;-58
2022/06/14 04:49:33;;;;;;;6.17;2.80;;;;;;;;;;4972750;28;20849;-58
2022/06/14 04:52:04;;;;;;;4.50;2.73;;;;;;;;;;4979700;28;20208;-58
2022/06/14 04:54:39;;;;;;;6.03;3.17;;;;;;;;;;4981836;28;20194;-58
2022/06/14 04:57:06;;;;;;;6.33;2.83;;;;;;;;;;4978552;28;20197;-58
2022/06/14 04:59:58;;;;;;;7.27;3.07;;;;;;;;;;4976840;28;20599;-59
2022/06/14 05:02:29;;;;;;;8.17;3.87;;;;;;;;;;4971372;28;20813;-59
2022/06/14 05:05:21;;;;;;;5.60;3.00;;;;;;;;;;4962345;28;20227;-59
2022/06/14 05:07:48;;;;;;;10.10;4.20;;;;;;;;;;4949764;28;20209;-58
2022/06/14 05:10:18;;;;;;;10.13;4.80;;;;;;;;;;4971635;28;20527;-56
2022/06/14 05:12:52;;;;;;;9.93;4.67;;;;;;;;;;4979277;28;20560;-57
2022/06/14 05:15:38;;;;;;;9.67;4.70;;;;;;;;;;4984703;28;20664;-57
2022/06/14 05:18:05;;;;;;;9.10;4.77;;;;;;;;;;4990549;28;20189;-58
2022/06/14 05:20:36;;;;;;;12.23;5.33;;;;;;;;;;4984299;28;20581;-58
2022/06/14 05:23:18;;;;;;;9.47;4.73;;;;;;;;;;4974956;28;20193;-57
2022/06/14 05:25:48;;;;;;;8.50;5.33;;;;;;;;;;4981238;28;20244;-57
2022/06/14 05:28:14;;;;;;;11.20;5.23;;;;;;;;;;4973316;28;20292;-57
2022/06/14 05:30:49;;;;;;;9.27;5.23;;;;;;;;;;4978891;28;20190;-57
2022/06/14 05:33:15;;;;;;;7.63;5.00;;;;;;;;;;4970816;28;20217;-56
2022/06/14 05:35:52;;;;;;;8.97;4.90;;;;;;;;;;4972996;28;20244;-56
2022/06/14 05:38:27;;;;;;;11.63;4.57;;;;;;;;;;4977391;28;20201;-56
2022/06/14 05:40:58;;;;;;;8.80;5.83;;;;;;;;;;4978875;28;20185;-57
2022/06/14 05:43:27;;;;;;;8.50;4.93;;;;;;;;;;4983184;28;21106;-57
2022/06/14 05:46:06;;;;;;;9.40;5.00;;;;;;;;;;4985398;28;20213;-56
2022/06/14 05:48:52;;;;;;;10.57;5.57;;;;;;;;;;4991569;28;20200;-57
2022/06/14 05:51:18;;;;;;;8.20;5.37;;;;;;;;;;4986905;28;20615;-56
2022/06/14 05:53:46;;;;;;;10.10;4.60;;;;;;;;;;4980973;28;20247;-57
2022/06/14 05:56:15;;;;;;;15.10;5.40;;;;;;;;;;4982521;28;20196;-57
2022/06/14 05:59:01;;;;;;;14.03;5.90;;;;;;;;;;4973864;28;20281;-56
2022/06/14 06:01:28;;;;;;;13.10;5.57;;;;;;;;;;4976963;28;20202;-57
2022/06/14 06:04:11;;;;;;;8.50;5.40;;;;;;;;;;4980306;28;20313;-57
2022/06/14 06:06:48;;;;;;;13.73;5.30;;;;;;;;;;4962848;28;20460;-57
2022/06/14 06:09:19;;;;;;;8.00;5.00;;;;;;;;;;4973052;28;20531;-57
2022/06/14 06:11:46;;;;;;;12.60;5.50;;;;;;;;;;4979594;28;20182;-57
2022/06/14 06:14:13;;;;;;;11.67;5.67;;;;;;;;;;4990893;28;20248;-56
2022/06/14 06:19:49;;;;;;;14.73;5.27;;;;;;;;;;4978472;28;20209;-57
2022/06/14 06:22:16;;;;;;;11.20;5.43;;;;;;;;;;4989838;28;20186;-57
2022/06/14 06:25:02;;;;;;;9.07;5.13;;;;;;;;;;4986898;28;20320;-57
2022/06/14 06:27:33;;;;;;;10.17;5.13;;;;;;;;;;4987572;28;20220;-56
2022/06/14 06:29:59;;;;;;;7.90;4.90;;;;;;;;;;4985581;28;20184;-56
2022/06/14 06:32:25;;;;;;;11.17;4.93;;;;;;;;;;4982375;28;20186;-56
2022/06/14 06:34:51;;;;;;;10.70;5.30;;;;;;;;;;4988088;28;20190;-57
2022/06/14 06:37:36;;;;;;;9.70;4.90;;;;;;;;;;4987784;28;20226;-56
2022/06/14 06:40:05;;;;;;;10.73;4.80;;;;;;;;;;4985452;28;20202;-57
2022/06/14 06:42:40;;;;;;;8.90;5.10;;;;;;;;;;4985366;28;20281;-57
2022/06/14 06:45:11;;;;;;;12.97;4.80;;;;;;;;;;4985604;28;20273;-57
2022/06/14 06:47:39;;;;;;;9.17;4.40;;;;;;;;;;4981357;28;20994;-57
2022/06/14 06:50:05;;;;;;;9.47;5.00;;;;;;;;;;4967147;28;20639;-56
2022/06/14 06:52:35;;;;;;;9.50;4.93;;;;;;;;;;4971708;28;20197;-57
2022/06/14 06:55:02;;;;;;;17.10;6.40;;;;;;;;;;4978786;28;20198;-57
2022/06/14 06:57:29;;;;;;;13.03;5.83;;;;;;;;;;4991255;28;20229;-57
2022/06/14 06:59:55;;;;;;;9.37;4.87;;;;;;;;;;4984397;28;20778;-57
2022/06/14 07:02:29;;;;;;;8.00;4.87;;;;;;;;;;4982694;28;20189;-57
2022/06/14 07:05:05;;;;;;;9.73;5.83;;;;;;;;;;4991911;28;20210;-56
2022/06/14 07:07:34;;;;;;;12.37;5.37;;;;;;;;;;4988642;28;20233;-57
2022/06/14 07:10:02;;;;;;;11.33;5.13;;;;;;;;;;4986938;28;20191;-57
2022/06/14 07:12:35;;;;;;;10.53;4.97;;;;;;;;;;4984155;28;20604;-57
2022/06/14 07:15:02;;;;;;;7.80;4.70;;;;;;;;;;4979223;28;20197;-57
2022/06/14 07:17:29;;;;;;;10.52;4.60;;;;;;;;;;4987124;28;20193;-57
2022/06/14 07:20:15;;;;;;;9.82;4.68;;;;;;;;;;4984747;28;20196;-57
2022/06/14 07:22:47;;;;;;;53.65;11.40;;;;;;;;;;4982790;28;20186;-55
2022/06/14 07:25:15;;;;;;;27.83;6.85;;;;;;;;;;4989545;28;20237;-57
2022/06/14 07:27:43;;;;;;;9.27;4.78;;;;;;;;;;4989615;28;20197;-57
2022/06/14 07:30:10;;;;;;;9.07;4.40;;;;;;;;;;4980266;28;20191;-55
2022/06/14 07:32:38;;;;;;;8.95;4.57;;;;;;;;;;4979186;28;20181;-57
2022/06/14 07:35:05;;;;;;;8.10;4.45;;;;;;;;;;4989560;28;20618;-57
2022/06/14 07:37:41;;;;;;;8.75;4.25;;;;;;;;;;4990214;28;20206;-57
2022/06/14 07:40:26;;;;;;;16.63;6.38;;;;;;;;;;4989361;28;20198;-57
2022/06/14 07:42:54;;;;;;;14.38;5.15;;;;;;;;;;4985107;28;20668;-57
2022/06/14 07:45:20;;;;;;;12.65;4.10;;;;;;;;;;4985637;28;20205;-57
2022/06/14 07:47:57;;;;;;;32.03;7.07;;;;;;;;;;4986879;28;20307;-57
2022/06/14 07:50:37;;;;;;;29.60;8.15;;;;;;;;;;4990592;28;20213;-55
2022/06/14 07:53:12;;;;;;;12.88;4.50;;;;;;;;;;4989957;28;20848;-56
2022/06/14 07:55:42;;;;;;;9.60;4.45;;;;;;;;;;4991828;28;20184;-56
2022/06/14 07:58:10;;;;;;;8.52;4.32;;;;;;;;;;4990701;28;20190;-57
2022/06/14 08:03:23;;;;;;;7.32;4.00;;;;;;;;;;4977994;28;20200;-55
2022/06/14 08:05:49;;;;;;;8.18;3.95;;;;;;;;;;4977719;28;20230;-56
2022/06/14 08:08:16;;;;;;;8.55;3.58;;;;;;;;;;4983205;28;20560;-56
2022/06/14 08:10:44;;;;;;;12.82;4.25;;;;;;;;;;4985558;28;20266;-56
2022/06/14 08:13:11;;;;;;;10.25;4.25;;;;;;;;;;4976585;28;20194;-57
2022/06/14 08:15:41;;;;;;;7.18;3.30;;;;;;;;;;4973574;28;20191;-57
2022/06/14 08:18:12;;;;;;;7.47;3.60;;;;;;;;;;4979939;28;20213;-57
2022/06/14 08:20:40;;;;;;;7.45;3.38;;;;;;;;;;4986209;28;20201;-58
2022/06/14 08:23:07;;;;;;;13.02;4.25;;;;;;;;;;4988586;28;21303;-58
2022/06/14 08:25:34;;;;;;;9.63;3.75;;;;;;;;;;4987355;28;20214;-58
2022/06/14 08:28:20;;;;;;;22.70;4.95;;;;;;;;;;4983676;28;20209;-58
2022/06/14 08:30:49;;;;;;;10.10;4.45;;;;;;;;;;4986511;28;20675;-57
2022/06/14 08:33:26;;;;;;;6.82;3.58;;;;;;;;;;4991937;28;21425;-57
2022/06/14 08:35:52;;;;;;;7.23;3.83;;;;;;;;;;4990087;28;20212;-58
2022/06/14 08:38:18;;;;;;;18.73;5.10;;;;;;;;;;4988625;28;20651;-58
2022/06/14 08:40:50;;;;;;;9.20;3.57;;;;;;;;;;4985864;28;20734;-57
2022/06/14 08:43:19;;;;;;;10.97;3.70;;;;;;;;;;4987564;28;20192;-58
2022/06/14 08:46:02;;;;;;;9.83;3.90;;;;;;;;;;4987184;28;20224;-57
2022/06/14 08:48:51;;;;;;;7.70;4.13;;;;;;;;;;4985531;28;20578;-58
2022/06/14 08:51:23;;;;;;;8.13;4.10;;;;;;;;;;4980388;28;20202;-57
2022/06/14 08:54:04;;;;;;;6.80;4.43;;;;;;;;;;4985266;28;20204;-57
2022/06/14 08:56:43;;;;;;;7.40;3.63;;;;;;;;;;4970321;28;20190;-58
2022/06/14 08:59:18;;;;;;;7.28;3.40;;;;;;;;;;4986263;28;20777;-57
2022/06/14 09:01:51;;;;;;;7.80;4.15;;;;;;;;;;4972155;28;20185;-57
2022/06/14 09:04:36;;;;;;;7.07;3.75;;;;;;;;;;4980946;28;20206;-57
2022/06/14 09:07:20;;;;;;;9.45;3.53;;;;;;;;;;4985167;28;20241;-58
2022/06/14 09:10:05;;;;;;;7.65;3.42;;;;;;;;;;4987277;28;20185;-57
2022/06/14 09:12:31;;;;;;;10.10;4.18;;;;;;;;;;4987984;28;20201;-58
2022/06/14 09:15:16;;;;;;;8.50;3.55;;;;;;;;;;4983701;28;20184;-60
2022/06/14 09:18:01;;;;;;;5.78;3.30;;;;;;;;;;4989191;28;20281;-56
2022/06/14 09:20:42;;;;;;;4.55;3.05;;;;;;;;;;4988045;28;20739;-59
2022/06/14 09:23:17;;;;;;;6.78;3.83;;;;;;;;;;4987680;28;20189;-59
2022/06/14 09:26:01;;;;;;;6.50;3.20;;;;;;;;;;4989050;28;20209;-60
2022/06/14 09:28:42;;;;;;;8.25;3.55;;;;;;;;;;4986841;28;20214;-59
2022/06/14 09:31:21;;;;;;;7.30;3.80;;;;;;;;;;4987268;28;20194;-60
2022/06/14 09:33:56;;;;;;;5.70;3.33;;;;;;;;;;4988242;28;20540;-59
2022/06/14 09:36:42;;;;;;;5.25;3.25;;;;;;;;;;4989718;28;20189;-59
2022/06/14 09:39:08;;;;;;;12.48;3.83;;;;;;;;;;4985521;28;20209;-58
2022/06/14 09:41:52;;;;;;;7.35;3.20;;;;;;;;;;4981518;28;20620;-59
2022/06/14 09:44:21;;;;;;;8.88;3.70;;;;;;;;;;4979123;28;20195;-59
2022/06/14 09:47:02;;;;;;;5.28;3.42;;;;;;;;;;4980163;28;20217;-59
2022/06/14 09:49:28;;;;;;;4.88;3.38;;;;;;;;;;4974296;28;20182;-59
2022/06/14 09:52:13;;;;;;;12.85;4.15;;;;;;;;;;4975804;28;20671;-59
2022/06/14 09:54:48;;;;;;;11.15;3.88;;;;;;;;;;4977084;28;20190;-59
2022/06/14 09:57:18;;;;;;;8.20;3.65;;;;;;;;;;4989395;28;20316;-58
2022/06/14 10:00:05;;;;;;;6.30;3.40;;;;;;;;;;4993582;28;20182;-58
2022/06/14 10:02:37;;;;;;;7.78;4.25;;;;;;;;;;4983434;28;20196;-59
2022/06/14 10:05:10;;;;;;;10.00;3.35;;;;;;;;;;4984097;28;20210;-59
2022/06/14 10:07:54;;;;;;;6.82;3.72;;;;;;;;;;4990904;28;20232;-58
2022/06/14 10:10:30;;;;;;;13.45;4.53;;;;;;;;;;4985165;28;20649;-59
2022/06/14 10:13:15;;;;;;;5.78;3.53;;;;;;;;;;4982243;28;20190;-59
2022/06/14 10:15:54;;;;;;;9.60;3.70;;;;;;;;;;4982228;28;21797;-58
2022/06/14 10:18:23;;;;;;;5.40;3.80;;;;;;;;;;4978871;28;20189;-58
2022/06/14 10:20:48;;;;;;;6.50;3.95;;;;;;;;;;4982165;28;20664;-59
2022/06/14 10:23:51;;;;;;;6.63;3.83;;;;;;;;;;4988884;28;20274;-59
2022/06/14 10:29:13;;;;;;;6.03;3.80;;;;;;;;;;4988011;28;20221;-59
2022/06/14 10:31:47;;;;;;;4.50;3.63;;;;;;;;;;4995622;28;20194;-59
2022/06/14 10:34:32;;;;;;;8.60;3.67;;;;;;;;;;4994151;28;20215;-59
2022/06/14 10:37:04;;;;;;;6.53;3.63;;;;;;;;;;4990594;28;20189;-59
2022/06/14 10:39:49;;;;;;;7.65;2.90;;;;;;;;;;4989150;28;20185;-59
2022/06/14 10:42:26;;;;;;;5.30;2.63;;;;;;;;;;4991973;28;20196;-59
2022/06/14 10:44:52;;;;;;;7.05;3.17;;;;;;;;;;4996924;28;21226;-58
2022/06/14 10:47:29;;;;;;;5.45;3.03;;;;;;;;;;4992730;28;20185;-59
2022/06/14 10:50:05;;;;;;;6.65;3.00;;;;;;;;;;4989667;28;20189;-58
2022/06/14 10:52:40;;;;;;;6.60;2.85;;;;;;;;;;4993983;28;20182;-59
2022/06/14 10:55:29;;;;;;;7.63;3.20;;;;;;;;;;4979231;28;20193;-59
2022/06/14 10:58:00;;;;;;;5.32;3.10;;;;;;;;;;4995721;28;20519;-59
2022/06/14 11:00:29;;;;;;;6.70;3.05;;;;;;;;;;4990305;28;20264;-59
2022/06/14 11:03:13;;;;;;;4.85;3.33;;;;;;;;;;4989162;28;20644;-60
2022/06/14 11:05:45;;;;;;;5.75;3.00;;;;;;;;;;4994341;28;20228;-59
2022/06/14 11:08:33;;;;;;;6.57;3.00;;;;;;;;;;4993912;28;20189;-59
2022/06/14 11:11:08;;;;;;;5.32;3.00;;;;;;;;;;4991465;28;20182;-59
2022/06/14 11:13:54;;;;;;;4.35;2.78;;;;;;;;;;4992329;28;20189;-59
2022/06/14 11:16:22;;;;;;;8.35;2.95;;;;;;;;;;4990028;28;20267;-59
2022/06/14 11:18:48;;;;;;;4.75;2.83;;;;;;;;;;4996930;28;20197;-59
2022/06/14 11:21:33;;;;;;;7.78;3.17;;;;;;;;;;4985106;28;20570;-59
2022/06/14 11:24:17;;;;;;;9.02;2.88;;;;;;;;;;4992665;28;20252;-59
2022/06/14 11:27:03;;;;;;;6.13;3.08;;;;;;;;;;4979464;28;20721;-60
2022/06/14 11:29:44;;;;;;;5.50;2.58;;;;;;;;;;4990329;28;20177;-58
2022/06/14 11:32:16;;;;;;;8.50;2.75;;;;;;;;;;4988196;28;20197;-59
2022/06/14 11:34:57;;;;;;;6.32;3.17;;;;;;;;;;4990864;28;20194;-59
2022/06/14 11:37:35;;;;;;;4.35;2.97;;;;;;;;;;4990400;28;21532;-59
2022/06/14 11:40:21;;;;;;;7.22;3.17;;;;;;;;;;4992490;28;20659;-59
2022/06/14 11:42:51;;;;;;;4.88;2.60;;;;;;;;;;4992758;28;20185;-59
2022/06/14 11:45:26;;;;;;;7.53;3.30;;;;;;;;;;4990450;28;20224;-59
2022/06/14 11:48:15;;;;;;;4.45;2.97;;;;;;;;;;4988953;28;20221;-60
2022/06/14 11:51:00;;;;;;;6.20;3.17;;;;;;;;;;4962182;28;20330;-60
2022/06/14 11:53:38;;;;;;;5.82;2.72;;;;;;;;;;4989982;28;20178;-59
2022/06/14 11:56:07;;;;;;;8.25;3.00;;;;;;;;;;4983978;28;25642;-59
2022/06/14 11:58:39;;;;;;;6.03;3.05;;;;;;;;;;4993901;28;20679;-59
2022/06/14 12:01:22;;;;;;;5.82;2.85;;;;;;;;;;4984035;28;20196;-58
2022/06/14 12:03:48;;;;;;;5.15;2.80;;;;;;;;;;4995987;28;21425;-60
2022/06/14 12:06:23;;;;;;;7.63;2.88;;;;;;;;;;4984746;28;20241;-60
2022/06/14 12:08:59;;;;;;;4.43;2.67;;;;;;;;;;4984218;28;20193;-59
2022/06/14 12:11:27;;;;;;;7.30;3.13;;;;;;;;;;4994145;28;20225;-59
2022/06/14 12:13:53;;;;;;;8.82;3.00;;;;;;;;;;4989954;28;20189;-59
2022/06/14 12:16:27;;;;;;;6.00;2.83;;;;;;;;;;4990375;28;20263;-59
2022/06/14 12:19:05;;;;;;;10.90;2.80;;;;;;;;;;4990784;28;20272;-59
2022/06/14 12:21:50;;;;;;;7.60;2.67;;;;;;;;;;4987367;28;20746;-60
2022/06/14 12:24:19;;;;;;;8.13;3.05;;;;;;;;;;4991546;28;20190;-59
2022/06/14 12:26:57;;;;;;;4.75;2.80;;;;;;;;;;4992649;28;20678;-59
2022/06/14 12:29:24;;;;;;;4.90;2.70;;;;;;;;;;4990294;28;20174;-59
2022/06/14 12:31:56;;;;;;;9.13;2.83;;;;;;;;;;4989084;28;20190;-59
2022/06/14 12:34:24;;;;;;;5.78;2.60;;;;;;;;;;4989077;28;20217;-59
2022/06/14 12:37:03;;;;;;;6.78;3.10;;;;;;;;;;4991011;28;20616;-60
2022/06/14 12:39:30;;;;;;;5.90;3.33;;;;;;;;;;4994560;28;20726;-59
2022/06/14 12:42:05;;;;;;;7.35;3.30;;;;;;;;;;4985235;28;20783;-59
2022/06/14 12:44:45;;;;;;;5.75;3.05;;;;;;;;;;4990495;28;20202;-59
2022/06/14 12:47:16;;;;;;;5.43;2.92;;;;;;;;;;4987615;28;20189;-59
2022/06/14 12:49:44;;;;;;;4.75;2.47;;;;;;;;;;4989529;28;20273;-60
2022/06/14 12:52:14;;;;;;;5.97;2.53;;;;;;;;;;4991149;28;20505;-60
2022/06/14 12:54:58;;;;;;;4.40;2.40;;;;;;;;;;4988787;28;20195;-60
2022/06/14 12:57:30;;;;;;;9.02;2.90;;;;;;;;;;4990873;28;20688;-60
2022/06/14 13:00:04;;;;;;;5.93;2.90;;;;;;;;;;4978778;28;20309;-60
2022/06/14 13:02:31;;;;;;;6.97;2.53;;;;;;;;;;4990801;28;20284;-60
2022/06/14 13:05:12;;;;;;;4.68;2.72;;;;;;;;;;4994239;28;20686;-60
2022/06/14 13:07:38;;;;;;;4.82;2.60;;;;;;;;;;4991438;28;20225;-58
2022/06/14 13:10:19;;;;;;;6.82;2.58;;;;;;;;;;4985752;28;20590;-59
2022/06/14 13:12:55;;;;;;;6.70;2.65;;;;;;;;;;4997007;28;20287;-58
2022/06/14 13:15:21;;;;;;;5.30;2.40;;;;;;;;;;4994384;28;20200;-58
2022/06/14 13:17:52;;;;;;;8.38;2.65;;;;;;;;;;4991635;28;20185;-60
2022/06/14 13:20:27;;;;;;;4.15;2.50;;;;;;;;;;4992896;28;20297;-58
2022/06/14 13:23:08;;;;;;;6.07;2.78;;;;;;;;;;4983178;28;20196;-59
2022/06/14 13:25:34;;;;;;;6.28;2.80;;;;;;;;;;4982338;28;20209;-58
2022/06/14 13:28:00;;;;;;;5.45;2.70;;;;;;;;;;4979099;28;20213;-59
2022/06/14 13:30:29;;;;;;;4.07;2.50;;;;;;;;;;4987265;28;20190;-60
2022/06/14 13:33:01;;;;;;;12.02;3.10;;;;;;;;;;4991445;28;20186;-64
2022/06/14 13:35:47;;;;;;;5.55;2.42;;;;;;;;;;4976687;28;20574;-59
2022/06/14 13:38:15;;;;;;;6.97;2.55;;;;;;;;;;4988821;28;20183;-61
2022/06/14 13:40:49;;;;;;;9.52;3.50;;;;;;;;;;4979905;28;20609;-59
2022/06/14 13:43:34;;;;;;;6.35;3.20;;;;;;;;;;4994948;28;20223;-59
2022/06/14 13:46:21;;;;;;;8.52;3.42;;;;;;;;;;4984543;28;20747;-60
2022/06/14 13:48:48;;;;;;;6.97;3.13;;;;;;;;;;4974580;28;20313;-61
2022/06/14 13:51:29;;;;;;;6.20;3.30;;;;;;;;;;4982041;28;20553;-60
2022/06/14 13:54:03;;;;;;;10.32;4.03;;;;;;;;;;4978315;28;20453;-61
2022/06/14 13:56:41;;;;;;;6.47;2.83;;;;;;;;;;4992271;28;20569;-60
2022/06/14 13:59:07;;;;;;;7.22;2.90;;;;;;;;;;4981736;28;20219;-59
2022/06/14 14:01:36;;;;;;;5.28;2.80;;;;;;;;;;4992019;28;20190;-60
2022/06/14 14:04:14;;;;;;;5.57;2.90;;;;;;;;;;4990501;28;21129;-61
2022/06/14 14:06:40;;;;;;;5.15;3.08;;;;;;;;;;4988285;28;20245;-60
2022/06/14 14:09:09;;;;;;;7.07;3.13;;;;;;;;;;4986661;28;21370;-59
2022/06/14 14:11:53;;;;;;;7.78;3.30;;;;;;;;;;4990545;28;20568;-59
2022/06/14 14:14:35;;;;;;;11.85;3.60;;;;;;;;;;4979492;28;20190;-60
2022/06/14 14:17:05;;;;;;;8.18;3.72;;;;;;;;;;4990712;28;20225;-61
2022/06/14 14:19:37;;;;;;;7.30;3.10;;;;;;;;;;4991522;28;20529;-60
2022/06/14 14:22:06;;;;;;;5.60;3.30;;;;;;;;;;4993546;28;20186;-59
2022/06/14 14:24:34;;;;;;;24.83;5.72;;;;;;;;;;4991963;28;20310;-59
2022/06/14 14:27:19;;;;;;;9.77;3.25;;;;;;;;;;4986295;28;20735;-60
2022/06/14 14:29:47;;;;;;;7.50;3.47;;;;;;;;;;4990233;28;20182;-60
2022/06/14 14:32:16;;;;;;;6.65;3.63;;;;;;;;;;4995423;28;20182;-59
2022/06/14 14:34:44;;;;;;;8.05;3.38;;;;;;;;;;4987749;28;20714;-60
2022/06/14 14:37:22;;;;;;;5.43;3.20;;;;;;;;;;4985469;28;20193;-60
2022/06/14 14:39:57;;;;;;;8.30;3.38;;;;;;;;;;4989142;28;20668;-59
2022/06/14 14:42:26;;;;;;;6.15;3.55;;;;;;;;;;4988880;28;20600;-59
2022/06/14 14:44:55;;;;;;;8.32;3.60;;;;;;;;;;4984515;28;20190;-59
2022/06/14 14:47:22;;;;;;;9.90;4.05;;;;;;;;;;4986733;28;20190;-59
2022/06/14 14:49:48;;;;;;;6.93;3.78;;;;;;;;;;4986318;28;20300;-59
2022/06/14 14:52:22;;;;;;;6.20;3.25;;;;;;;;;;4992717;28;20187;-59
2022/06/14 14:55:07;;;;;;;6.57;3.58;;;;;;;;;;4989129;28;20190;-59
2022/06/14 14:57:42;;;;;;;5.78;3.63;;;;;;;;;;4992724;28;20189;-59
2022/06/14 15:05:20;;;;;;;6.03;3.47;;;;;;;;;;4990611;28;20227;-59
2022/06/14 15:05:57;;;;;;;8.05;3.15;;;;;;;;;;4986504;28;20729;-59
2022/06/14 15:08:28;;;;;;;7.55;3.30;;;;;;;;;;4989631;28;20782;-59
2022/06/14 15:10:55;;;;;;;6.32;3.35;;;;;;;;;;4981406;28;20185;-59
2022/06/14 15:13:31;;;;;;;9.43;3.30;;;;;;;;;;4982138;28;20197;-59
2022/06/14 15:15:57;;;;;;;5.25;3.60;;;;;;;;;;4976940;28;20779;-59
2022/06/14 15:21:16;;;;;;;7.60;3.30;;;;;;;;;;4986250;28;20200;-60
2022/06/14 15:23:46;;;;;;;6.57;3.25;;;;;;;;;;4997367;28;20212;-59
2022/06/14 15:26:13;;;;;;;6.93;3.20;;;;;;;;;;4986783;28;20225;-59
2022/06/14 15:28:49;;;;;;;6.20;3.40;;;;;;;;;;4992555;28;20218;-59
2022/06/14 15:31:27;;;;;;;6.40;3.40;;;;;;;;;;4989636;28;20695;-60
2022/06/14 15:33:53;;;;;;;9.27;3.38;;;;;;;;;;4982979;28;20572;-59
2022/06/14 15:36:30;;;;;;;7.28;3.97;;;;;;;;;;4987767;28;20181;-59